sensor_id;sensor_type;location;lat;lon;timestamp;temperature;humidity
24252;DHT22;12380;51.118;4.176;2023-05-27T00:00:01;12.70;99.90
24252;DHT22;12380;51.118;4.176;2023-05-27T00:02:27;12.90;99.90
24252;DHT22;12380;51.118;4.176;2023-05-27T00:04:52;12.90;99.90
24252;DHT22;12380;51.118;4.176;2023-05-27T00:07:18;12.90;99.90
24252;DHT22;12380;51.118;4.176;2023-05-27T00:09:44;13.00;99.90
24252;DHT22;12380;51.118;4.176;2023-05-27T00:12:09;12.70;99.90
24252;DHT22;12380;51.118;4.176;2023-05-27T00:14:35;12.70;99.90
24252;DHT22;12380;51.118;4.176;2023-05-27T00:17:01;12.60;99.90
24252;DHT22;12380;51.118;4.176;2023-05-27T00:19:27;12.70;99.90
24252;DHT22;12380;51.118;4.176;2023-05-27T00:21:54;12.50;99.90
24252;DHT22;12380;51.118;4.176;2023-05-27T00:24:23;12.30;99.90
24252;DHT22;12380;51.118;4.176;2023-05-27T00:26:51;12.30;99.90
24252;DHT22;12380;51.118;4.176;2023-05-27T00:29:16;12.30;99.90
24252;DHT22;12380;51.118;4.176;2023-05-27T00:31:44;12.30;99.90
24252;DHT22;12380;51.118;4.176;2023-05-27T00:34:12;12.30;99.90
24252;DHT22;12380;51.118;4.176;2023-05-27T00:36:38;12.30;99.90
24252;DHT22;12380;51.118;4.176;2023-05-27T00:39:03;12.30;99.90
24252;DHT22;12380;51.118;4.176;2023-05-27T00:41:31;12.30;99.90
24252;DHT22;12380;51.118;4.176;2023-05-27T00:43:56;12.30;99.90
24252;DHT22;12380;51.118;4.176;2023-05-27T00:46:22;12.30;99.90
24252;DHT22;12380;51.118;4.176;2023-05-27T00:48:48;12.40;99.90
24252;DHT22;12380;51.118;4.176;2023-05-27T00:51:16;12.40;99.90
24252;DHT22;12380;51.118;4.176;2023-05-27T00:53:43;12.40;99.90
24252;DHT22;12380;51.118;4.176;2023-05-27T00:56:10;12.30;99.90
24252;DHT22;12380;51.118;4.176;2023-05-27T00:58:36;12.30;99.90
24252;DHT22;12380;51.118;4.176;2023-05-27T01:01:02;12.30;99.90
24252;DHT22;12380;51.118;4.176;2023-05-27T01:03:28;12.20;99.90
24252;DHT22;12380;51.118;4.176;2023-05-27T01:05:55;12.10;99.90
24252;DHT22;12380;51.118;4.176;2023-05-27T01:08:31;12.00;99.90
24252;DHT22;12380;51.118;4.176;2023-05-27T01:10:59;12.00;99.90
24252;DHT22;12380;51.118;4.176;2023-05-27T01:13:46;12.00;99.90
24252;DHT22;12380;51.118;4.176;2023-05-27T01:16:16;12.00;99.90
24252;DHT22;12380;51.118;4.176;2023-05-27T01:18:42;12.20;99.90
24252;DHT22;12380;51.118;4.176;2023-05-27T01:21:10;12.10;99.90
24252;DHT22;12380;51.118;4.176;2023-05-27T01:23:40;11.90;99.90
24252;DHT22;12380;51.118;4.176;2023-05-27T01:26:06;11.70;99.90
24252;DHT22;12380;51.118;4.176;2023-05-27T01:28:31;11.50;99.90
24252;DHT22;12380;51.118;4.176;2023-05-27T01:31:02;11.60;99.90
24252;DHT22;12380;51.118;4.176;2023-05-27T01:33:32;11.60;99.90
24252;DHT22;12380;51.118;4.176;2023-05-27T01:36:01;11.60;99.90
24252;DHT22;12380;51.118;4.176;2023-05-27T01:38:33;11.50;99.90
24252;DHT22;12380;51.118;4.176;2023-05-27T01:41:01;11.50;99.90
24252;DHT22;12380;51.118;4.176;2023-05-27T01:43:27;11.50;99.90
24252;DHT22;12380;51.118;4.176;2023-05-27T01:45:53;11.70;99.90
24252;DHT22;12380;51.118;4.176;2023-05-27T01:48:21;11.70;99.90
24252;DHT22;12380;51.118;4.176;2023-05-27T01:50:46;11.90;99.90
24252;DHT22;12380;51.118;4.176;2023-05-27T01:53:12;11.70;99.90
24252;DHT22;12380;51.118;4.176;2023-05-27T01:55:38;11.60;99.90
24252;DHT22;12380;51.118;4.176;2023-05-27T01:58:03;11.50;99.90
24252;DHT22;12380;51.118;4.176;2023-05-27T02:00:29;11.50;99.90
24252;DHT22;12380;51.118;4.176;2023-05-27T02:02:57;11.50;99.90
24252;DHT22;12380;51.118;4.176;2023-05-27T02:05:23;11.40;99.90
24252;DHT22;12380;51.118;4.176;2023-05-27T02:07:48;11.30;99.90
24252;DHT22;12380;51.118;4.176;2023-05-27T02:10:15;11.30;99.90
24252;DHT22;12380;51.118;4.176;2023-05-27T02:12:40;11.30;99.90
24252;DHT22;12380;51.118;4.176;2023-05-27T02:15:06;11.30;99.90
24252;DHT22;12380;51.118;4.176;2023-05-27T02:17:32;11.10;99.90
24252;DHT22;12380;51.118;4.176;2023-05-27T02:19:58;11.20;99.90
24252;DHT22;12380;51.118;4.176;2023-05-27T02:22:24;11.20;99.90
24252;DHT22;12380;51.118;4.176;2023-05-27T02:24:49;11.20;99.90
24252;DHT22;12380;51.118;4.176;2023-05-27T02:27:15;11.20;99.90
24252;DHT22;12380;51.118;4.176;2023-05-27T02:29:40;11.00;99.90
24252;DHT22;12380;51.118;4.176;2023-05-27T02:32:06;11.00;99.90
24252;DHT22;12380;51.118;4.176;2023-05-27T02:34:32;11.10;99.90
24252;DHT22;12380;51.118;4.176;2023-05-27T02:37:04;11.10;99.90
24252;DHT22;12380;51.118;4.176;2023-05-27T02:39:30;11.20;99.90
24252;DHT22;12380;51.118;4.176;2023-05-27T02:41:55;11.00;99.90
24252;DHT22;12380;51.118;4.176;2023-05-27T02:44:21;11.00;99.90
24252;DHT22;12380;51.118;4.176;2023-05-27T02:46:46;10.90;99.90
24252;DHT22;12380;51.118;4.176;2023-05-27T02:49:12;11.00;99.90
24252;DHT22;12380;51.118;4.176;2023-05-27T02:51:43;11.00;99.90
24252;DHT22;12380;51.118;4.176;2023-05-27T02:54:08;11.00;99.90
24252;DHT22;12380;51.118;4.176;2023-05-27T02:56:34;11.20;99.90
24252;DHT22;12380;51.118;4.176;2023-05-27T02:59:02;11.00;99.90
24252;DHT22;12380;51.118;4.176;2023-05-27T03:01:27;11.10;99.90
24252;DHT22;12380;51.118;4.176;2023-05-27T03:03:56;11.10;99.90
24252;DHT22;12380;51.118;4.176;2023-05-27T03:06:22;11.20;99.90
24252;DHT22;12380;51.118;4.176;2023-05-27T03:08:47;11.00;99.90
24252;DHT22;12380;51.118;4.176;2023-05-27T03:11:13;10.70;99.90
24252;DHT22;12380;51.118;4.176;2023-05-27T03:13:38;10.70;99.90
24252;DHT22;12380;51.118;4.176;2023-05-27T03:16:04;10.80;99.90
24252;DHT22;12380;51.118;4.176;2023-05-27T03:18:30;10.80;99.90
24252;DHT22;12380;51.118;4.176;2023-05-27T03:20:57;10.70;99.90
24252;DHT22;12380;51.118;4.176;2023-05-27T03:23:23;10.80;99.90
24252;DHT22;12380;51.118;4.176;2023-05-27T03:25:48;10.80;99.90
24252;DHT22;12380;51.118;4.176;2023-05-27T03:28:14;10.80;99.90
24252;DHT22;12380;51.118;4.176;2023-05-27T03:30:41;10.70;99.90
24252;DHT22;12380;51.118;4.176;2023-05-27T03:33:08;10.80;99.90
24252;DHT22;12380;51.118;4.176;2023-05-27T03:35:34;10.70;99.90
24252;DHT22;12380;51.118;4.176;2023-05-27T03:37:59;10.60;99.90
24252;DHT22;12380;51.118;4.176;2023-05-27T03:40:28;10.60;99.90
24252;DHT22;12380;51.118;4.176;2023-05-27T03:42:53;10.60;99.90
24252;DHT22;12380;51.118;4.176;2023-05-27T03:45:19;10.50;99.90
24252;DHT22;12380;51.118;4.176;2023-05-27T03:47:47;10.60;99.90
24252;DHT22;12380;51.118;4.176;2023-05-27T03:50:13;10.60;99.90
24252;DHT22;12380;51.118;4.176;2023-05-27T03:52:38;10.70;99.90
24252;DHT22;12380;51.118;4.176;2023-05-27T03:55:04;10.70;99.90
24252;DHT22;12380;51.118;4.176;2023-05-27T03:57:30;10.60;99.90
24252;DHT22;12380;51.118;4.176;2023-05-27T03:59:55;10.40;99.90
24252;DHT22;12380;51.118;4.176;2023-05-27T04:02:21;10.50;99.90
24252;DHT22;12380;51.118;4.176;2023-05-27T04:04:47;10.40;99.90
24252;DHT22;12380;51.118;4.176;2023-05-27T04:07:12;10.40;99.90
24252;DHT22;12380;51.118;4.176;2023-05-27T04:09:38;10.30;99.90
24252;DHT22;12380;51.118;4.176;2023-05-27T04:12:04;10.30;99.90
24252;DHT22;12380;51.118;4.176;2023-05-27T04:14:33;10.60;99.90
24252;DHT22;12380;51.118;4.176;2023-05-27T04:16:59;10.70;99.90
24252;DHT22;12380;51.118;4.176;2023-05-27T04:19:24;10.70;99.90
24252;DHT22;12380;51.118;4.176;2023-05-27T04:21:51;10.50;99.90
24252;DHT22;12380;51.118;4.176;2023-05-27T04:24:16;10.30;99.90
24252;DHT22;12380;51.118;4.176;2023-05-27T04:26:42;10.40;99.90
24252;DHT22;12380;51.118;4.176;2023-05-27T04:29:08;10.50;99.90
24252;DHT22;12380;51.118;4.176;2023-05-27T04:31:36;10.30;99.90
24252;DHT22;12380;51.118;4.176;2023-05-27T04:34:02;10.40;99.90
24252;DHT22;12380;51.118;4.176;2023-05-27T04:36:28;10.30;99.90
24252;DHT22;12380;51.118;4.176;2023-05-27T04:38:58;10.40;99.90
24252;DHT22;12380;51.118;4.176;2023-05-27T04:41:29;10.40;99.90
24252;DHT22;12380;51.118;4.176;2023-05-27T04:43:55;10.50;99.90
24252;DHT22;12380;51.118;4.176;2023-05-27T04:46:22;10.50;99.90
24252;DHT22;12380;51.118;4.176;2023-05-27T04:48:49;10.50;99.90
24252;DHT22;12380;51.118;4.176;2023-05-27T04:51:16;10.70;99.90
24252;DHT22;12380;51.118;4.176;2023-05-27T04:53:45;10.70;99.90
24252;DHT22;12380;51.118;4.176;2023-05-27T04:56:13;10.80;99.90
24252;DHT22;12380;51.118;4.176;2023-05-27T04:58:40;10.80;99.90
24252;DHT22;12380;51.118;4.176;2023-05-27T05:01:09;10.90;99.90
24252;DHT22;12380;51.118;4.176;2023-05-27T05:03:45;11.10;99.90
24252;DHT22;12380;51.118;4.176;2023-05-27T05:06:29;11.00;99.90
24252;DHT22;12380;51.118;4.176;2023-05-27T05:08:55;10.90;99.90
24252;DHT22;12380;51.118;4.176;2023-05-27T05:11:22;10.90;99.90
24252;DHT22;12380;51.118;4.176;2023-05-27T05:13:48;11.10;99.90
24252;DHT22;12380;51.118;4.176;2023-05-27T05:16:14;11.00;99.90
24252;DHT22;12380;51.118;4.176;2023-05-27T05:18:39;11.00;99.90
24252;DHT22;12380;51.118;4.176;2023-05-27T05:21:05;11.20;99.90
24252;DHT22;12380;51.118;4.176;2023-05-27T05:23:31;11.30;99.90
24252;DHT22;12380;51.118;4.176;2023-05-27T05:25:56;11.40;99.90
24252;DHT22;12380;51.118;4.176;2023-05-27T05:28:31;11.60;99.90
24252;DHT22;12380;51.118;4.176;2023-05-27T05:30:59;11.70;99.90
24252;DHT22;12380;51.118;4.176;2023-05-27T05:33:25;11.80;99.90
24252;DHT22;12380;51.118;4.176;2023-05-27T05:35:50;11.90;99.90
24252;DHT22;12380;51.118;4.176;2023-05-27T05:38:16;12.20;99.90
24252;DHT22;12380;51.118;4.176;2023-05-27T05:40:41;12.50;99.90
24252;DHT22;12380;51.118;4.176;2023-05-27T05:43:14;12.40;99.90
24252;DHT22;12380;51.118;4.176;2023-05-27T05:45:40;12.40;99.90
24252;DHT22;12380;51.118;4.176;2023-05-27T05:48:05;12.40;99.90
24252;DHT22;12380;51.118;4.176;2023-05-27T05:50:31;12.80;99.90
24252;DHT22;12380;51.118;4.176;2023-05-27T05:52:58;13.00;99.90
24252;DHT22;12380;51.118;4.176;2023-05-27T05:55:23;13.10;99.90
24252;DHT22;12380;51.118;4.176;2023-05-27T05:57:51;13.40;99.90
24252;DHT22;12380;51.118;4.176;2023-05-27T06:00:17;13.70;99.90
24252;DHT22;12380;51.118;4.176;2023-05-27T06:02:43;14.10;99.90
24252;DHT22;12380;51.118;4.176;2023-05-27T06:05:09;14.30;99.90
24252;DHT22;12380;51.118;4.176;2023-05-27T06:07:34;14.40;99.90
24252;DHT22;12380;51.118;4.176;2023-05-27T06:10:00;14.80;99.90
24252;DHT22;12380;51.118;4.176;2023-05-27T06:12:28;14.90;99.90
24252;DHT22;12380;51.118;4.176;2023-05-27T06:14:53;15.10;99.90
24252;DHT22;12380;51.118;4.176;2023-05-27T06:17:19;15.40;99.90
24252;DHT22;12380;51.118;4.176;2023-05-27T06:19:44;15.50;99.90
24252;DHT22;12380;51.118;4.176;2023-05-27T06:22:13;15.40;99.90
24252;DHT22;12380;51.118;4.176;2023-05-27T06:24:38;15.60;99.90
24252;DHT22;12380;51.118;4.176;2023-05-27T06:27:04;15.80;99.90
24252;DHT22;12380;51.118;4.176;2023-05-27T06:29:29;15.60;99.90
24252;DHT22;12380;51.118;4.176;2023-05-27T06:31:55;15.80;99.90
24252;DHT22;12380;51.118;4.176;2023-05-27T06:34:21;16.30;99.90
24252;DHT22;12380;51.118;4.176;2023-05-27T06:36:46;16.50;99.90
24252;DHT22;12380;51.118;4.176;2023-05-27T06:39:14;16.40;99.90
24252;DHT22;12380;51.118;4.176;2023-05-27T06:41:42;16.40;99.90
24252;DHT22;12380;51.118;4.176;2023-05-27T06:44:08;16.70;99.90
24252;DHT22;12380;51.118;4.176;2023-05-27T06:46:33;17.00;99.90
24252;DHT22;12380;51.118;4.176;2023-05-27T06:49:01;17.40;99.90
24252;DHT22;12380;51.118;4.176;2023-05-27T06:51:27;17.70;99.90
24252;DHT22;12380;51.118;4.176;2023-05-27T06:53:52;17.80;99.90
24252;DHT22;12380;51.118;4.176;2023-05-27T06:56:20;18.20;99.90
24252;DHT22;12380;51.118;4.176;2023-05-27T06:58:46;18.50;99.90
24252;DHT22;12380;51.118;4.176;2023-05-27T07:01:11;18.50;99.90
24252;DHT22;12380;51.118;4.176;2023-05-27T07:03:37;18.80;99.90
24252;DHT22;12380;51.118;4.176;2023-05-27T07:06:03;18.60;99.90
24252;DHT22;12380;51.118;4.176;2023-05-27T07:08:28;18.40;99.90
24252;DHT22;12380;51.118;4.176;2023-05-27T07:10:55;18.50;99.90
24252;DHT22;12380;51.118;4.176;2023-05-27T07:13:20;19.00;99.90
24252;DHT22;12380;51.118;4.176;2023-05-27T07:15:46;19.30;99.90
24252;DHT22;12380;51.118;4.176;2023-05-27T07:18:11;19.70;99.90
24252;DHT22;12380;51.118;4.176;2023-05-27T07:20:41;19.50;99.90
24252;DHT22;12380;51.118;4.176;2023-05-27T07:23:07;20.10;99.90
24252;DHT22;12380;51.118;4.176;2023-05-27T07:25:36;20.10;99.90
24252;DHT22;12380;51.118;4.176;2023-05-27T07:28:01;19.70;99.90
24252;DHT22;12380;51.118;4.176;2023-05-27T07:30:27;20.00;99.90
24252;DHT22;12380;51.118;4.176;2023-05-27T07:32:53;20.40;99.90
24252;DHT22;12380;51.118;4.176;2023-05-27T07:35:18;20.60;99.90
24252;DHT22;12380;51.118;4.176;2023-05-27T07:37:44;20.80;99.90
24252;DHT22;12380;51.118;4.176;2023-05-27T07:40:10;20.80;99.90
24252;DHT22;12380;51.118;4.176;2023-05-27T07:42:35;20.80;99.90
24252;DHT22;12380;51.118;4.176;2023-05-27T07:45:02;21.10;99.90
24252;DHT22;12380;51.118;4.176;2023-05-27T07:47:28;20.90;99.90
24252;DHT22;12380;51.118;4.176;2023-05-27T07:49:53;20.60;99.90
24252;DHT22;12380;51.118;4.176;2023-05-27T07:52:19;20.40;99.90
24252;DHT22;12380;51.118;4.176;2023-05-27T07:54:45;20.50;99.90
24252;DHT22;12380;51.118;4.176;2023-05-27T07:57:13;20.20;99.90
24252;DHT22;12380;51.118;4.176;2023-05-27T07:59:42;20.40;99.90
24252;DHT22;12380;51.118;4.176;2023-05-27T08:02:10;20.70;99.90
24252;DHT22;12380;51.118;4.176;2023-05-27T08:04:35;21.30;99.90
24252;DHT22;12380;51.118;4.176;2023-05-27T08:07:03;21.40;99.90
24252;DHT22;12380;51.118;4.176;2023-05-27T08:09:29;21.80;99.90
24252;DHT22;12380;51.118;4.176;2023-05-27T08:11:54;22.20;99.90
24252;DHT22;12380;51.118;4.176;2023-05-27T08:14:20;22.80;99.50
24252;DHT22;12380;51.118;4.176;2023-05-27T08:16:50;22.80;98.60
24252;DHT22;12380;51.118;4.176;2023-05-27T08:19:16;23.10;98.80
24252;DHT22;12380;51.118;4.176;2023-05-27T08:21:41;23.20;99.10
24252;DHT22;12380;51.118;4.176;2023-05-27T08:24:09;23.40;97.10
24252;DHT22;12380;51.118;4.176;2023-05-27T08:26:35;23.70;96.90
24252;DHT22;12380;51.118;4.176;2023-05-27T08:29:00;23.70;96.60
24252;DHT22;12380;51.118;4.176;2023-05-27T08:31:29;23.70;95.90
24252;DHT22;12380;51.118;4.176;2023-05-27T08:33:55;24.00;96.30
24252;DHT22;12380;51.118;4.176;2023-05-27T08:36:23;24.50;94.10
24252;DHT22;12380;51.118;4.176;2023-05-27T08:38:48;24.20;94.10
24252;DHT22;12380;51.118;4.176;2023-05-27T08:41:14;24.00;93.40
24252;DHT22;12380;51.118;4.176;2023-05-27T08:43:40;23.80;94.00
24252;DHT22;12380;51.118;4.176;2023-05-27T08:46:05;23.50;96.30
24252;DHT22;12380;51.118;4.176;2023-05-27T08:48:32;23.60;94.20
24252;DHT22;12380;51.118;4.176;2023-05-27T08:50:57;23.90;93.40
24252;DHT22;12380;51.118;4.176;2023-05-27T08:53:27;23.60;92.00
24252;DHT22;12380;51.118;4.176;2023-05-27T08:55:54;23.90;93.40
24252;DHT22;12380;51.118;4.176;2023-05-27T08:58:20;23.90;94.20
24252;DHT22;12380;51.118;4.176;2023-05-27T09:00:45;24.20;91.70
24252;DHT22;12380;51.118;4.176;2023-05-27T09:03:11;24.20;91.40
24252;DHT22;12380;51.118;4.176;2023-05-27T09:05:37;24.10;91.30
24252;DHT22;12380;51.118;4.176;2023-05-27T09:08:02;24.30;92.40
24252;DHT22;12380;51.118;4.176;2023-05-27T09:10:38;24.60;91.40
24252;DHT22;12380;51.118;4.176;2023-05-27T09:13:03;24.80;90.70
24252;DHT22;12380;51.118;4.176;2023-05-27T09:15:30;24.20;91.10
24252;DHT22;12380;51.118;4.176;2023-05-27T09:17:56;24.70;90.40
24252;DHT22;12380;51.118;4.176;2023-05-27T09:20:25;24.80;89.40
24252;DHT22;12380;51.118;4.176;2023-05-27T09:22:58;25.50;91.30
24252;DHT22;12380;51.118;4.176;2023-05-27T09:25:24;25.80;91.00
24252;DHT22;12380;51.118;4.176;2023-05-27T09:27:49;25.90;89.20
24252;DHT22;12380;51.118;4.176;2023-05-27T09:30:18;25.80;89.00
24252;DHT22;12380;51.118;4.176;2023-05-27T09:32:46;25.80;88.10
24252;DHT22;12380;51.118;4.176;2023-05-27T09:35:12;26.00;85.20
24252;DHT22;12380;51.118;4.176;2023-05-27T09:37:38;25.90;86.30
24252;DHT22;12380;51.118;4.176;2023-05-27T09:40:06;26.40;86.00
24252;DHT22;12380;51.118;4.176;2023-05-27T09:42:39;26.60;84.50
24252;DHT22;12380;51.118;4.176;2023-05-27T09:45:05;26.60;85.70
24252;DHT22;12380;51.118;4.176;2023-05-27T09:47:37;26.50;82.30
24252;DHT22;12380;51.118;4.176;2023-05-27T09:50:02;26.20;81.20
24252;DHT22;12380;51.118;4.176;2023-05-27T09:52:28;26.20;78.40
24252;DHT22;12380;51.118;4.176;2023-05-27T09:54:54;26.50;82.20
24252;DHT22;12380;51.118;4.176;2023-05-27T09:57:21;26.90;80.10
24252;DHT22;12380;51.118;4.176;2023-05-27T09:59:49;27.10;80.80
24252;DHT22;12380;51.118;4.176;2023-05-27T10:02:16;27.00;77.40
24252;DHT22;12380;51.118;4.176;2023-05-27T10:04:43;27.40;76.50
24252;DHT22;12380;51.118;4.176;2023-05-27T10:07:09;27.60;79.60
24252;DHT22;12380;51.118;4.176;2023-05-27T10:09:35;27.80;75.00
24252;DHT22;12380;51.118;4.176;2023-05-27T10:12:00;28.20;74.00
24252;DHT22;12380;51.118;4.176;2023-05-27T10:14:29;28.40;72.50
24252;DHT22;12380;51.118;4.176;2023-05-27T10:16:58;28.60;72.20
24252;DHT22;12380;51.118;4.176;2023-05-27T10:19:23;28.50;67.90
24252;DHT22;12380;51.118;4.176;2023-05-27T10:21:49;28.50;63.50
24252;DHT22;12380;51.118;4.176;2023-05-27T10:24:14;28.60;66.30
24252;DHT22;12380;51.118;4.176;2023-05-27T10:26:41;28.70;63.50
24252;DHT22;12380;51.118;4.176;2023-05-27T10:29:14;28.70;66.10
24252;DHT22;12380;51.118;4.176;2023-05-27T10:31:43;28.60;67.60
24252;DHT22;12380;51.118;4.176;2023-05-27T10:34:09;28.20;67.50
24252;DHT22;12380;51.118;4.176;2023-05-27T10:36:35;28.20;59.20
24252;DHT22;12380;51.118;4.176;2023-05-27T10:39:14;27.70;69.50
24252;DHT22;12380;51.118;4.176;2023-05-27T10:41:41;28.30;63.50
24252;DHT22;12380;51.118;4.176;2023-05-27T10:44:07;28.80;65.10
24252;DHT22;12380;51.118;4.176;2023-05-27T10:46:43;29.10;64.80
24252;DHT22;12380;51.118;4.176;2023-05-27T10:49:44;29.30;58.30
24252;DHT22;12380;51.118;4.176;2023-05-27T10:54:38;28.90;55.20
24252;DHT22;12380;51.118;4.176;2023-05-27T10:57:04;28.90;60.80
24252;DHT22;12380;51.118;4.176;2023-05-27T10:59:52;28.80;58.60
24252;DHT22;12380;51.118;4.176;2023-05-27T11:02:18;28.70;59.90
24252;DHT22;12380;51.118;4.176;2023-05-27T11:04:46;28.30;59.70
24252;DHT22;12380;51.118;4.176;2023-05-27T11:07:12;28.70;57.00
24252;DHT22;12380;51.118;4.176;2023-05-27T11:12:12;26.90;50.60
24252;DHT22;12380;51.118;4.176;2023-05-27T11:14:42;26.70;58.40
24252;DHT22;12380;51.118;4.176;2023-05-27T11:17:11;27.70;62.50
24252;DHT22;12380;51.118;4.176;2023-05-27T11:19:38;28.20;56.60
24252;DHT22;12380;51.118;4.176;2023-05-27T11:22:03;28.60;54.70
24252;DHT22;12380;51.118;4.176;2023-05-27T11:24:29;28.60;48.50
24252;DHT22;12380;51.118;4.176;2023-05-27T11:26:55;28.60;51.20
24252;DHT22;12380;51.118;4.176;2023-05-27T11:29:21;28.80;55.00
24252;DHT22;12380;51.118;4.176;2023-05-27T11:31:47;28.40;52.70
24252;DHT22;12380;51.118;4.176;2023-05-27T11:34:13;28.10;51.40
24252;DHT22;12380;51.118;4.176;2023-05-27T11:36:44;28.50;51.90
24252;DHT22;12380;51.118;4.176;2023-05-27T11:39:13;28.80;48.30
24252;DHT22;12380;51.118;4.176;2023-05-27T11:44:15;27.90;45.50
24252;DHT22;12380;51.118;4.176;2023-05-27T11:46:41;27.80;50.60
24252;DHT22;12380;51.118;4.176;2023-05-27T11:49:08;27.50;45.80
24252;DHT22;12380;51.118;4.176;2023-05-27T11:51:34;26.70;47.30
24252;DHT22;12380;51.118;4.176;2023-05-27T11:54:04;26.60;46.80
24252;DHT22;12380;51.118;4.176;2023-05-27T11:56:30;26.90;48.50
24252;DHT22;12380;51.118;4.176;2023-05-27T11:58:56;27.00;40.50
24252;DHT22;12380;51.118;4.176;2023-05-27T12:01:22;27.60;44.80
24252;DHT22;12380;51.118;4.176;2023-05-27T12:03:47;28.00;46.50
24252;DHT22;12380;51.118;4.176;2023-05-27T12:06:13;28.40;41.80
24252;DHT22;12380;51.118;4.176;2023-05-27T12:08:40;28.90;42.30
24252;DHT22;12380;51.118;4.176;2023-05-27T12:11:06;27.70;41.10
24252;DHT22;12380;51.118;4.176;2023-05-27T12:13:31;27.30;40.10
24252;DHT22;12380;51.118;4.176;2023-05-27T12:15:57;27.30;44.80
24252;DHT22;12380;51.118;4.176;2023-05-27T12:18:23;27.30;41.60
24252;DHT22;12380;51.118;4.176;2023-05-27T12:20:49;27.60;43.10
24252;DHT22;12380;51.118;4.176;2023-05-27T12:23:17;26.80;42.30
24252;DHT22;12380;51.118;4.176;2023-05-27T12:25:45;26.20;36.80
24252;DHT22;12380;51.118;4.176;2023-05-27T12:28:11;26.40;42.00
24252;DHT22;12380;51.118;4.176;2023-05-27T12:30:37;26.40;40.70
24252;DHT22;12380;51.118;4.176;2023-05-27T12:33:03;27.10;46.00
24252;DHT22;12380;51.118;4.176;2023-05-27T12:35:29;27.50;42.10
24252;DHT22;12380;51.118;4.176;2023-05-27T12:37:55;27.70;40.80
24252;DHT22;12380;51.118;4.176;2023-05-27T12:40:21;27.40;43.20
24252;DHT22;12380;51.118;4.176;2023-05-27T12:42:46;27.50;41.40
24252;DHT22;12380;51.118;4.176;2023-05-27T12:45:12;27.70;42.20
24252;DHT22;12380;51.118;4.176;2023-05-27T12:47:38;28.00;38.60
24252;DHT22;12380;51.118;4.176;2023-05-27T12:50:06;27.70;35.30
24252;DHT22;12380;51.118;4.176;2023-05-27T12:52:32;28.10;38.20
24252;DHT22;12380;51.118;4.176;2023-05-27T12:54:57;28.40;36.90
24252;DHT22;12380;51.118;4.176;2023-05-27T12:57:26;28.70;36.00
24252;DHT22;12380;51.118;4.176;2023-05-27T12:59:52;29.10;35.80
24252;DHT22;12380;51.118;4.176;2023-05-27T13:02:18;29.30;32.50
24252;DHT22;12380;51.118;4.176;2023-05-27T13:04:45;28.90;38.40
24252;DHT22;12380;51.118;4.176;2023-05-27T13:07:12;28.80;37.70
24252;DHT22;12380;51.118;4.176;2023-05-27T13:09:39;28.70;37.40
24252;DHT22;12380;51.118;4.176;2023-05-27T13:12:07;28.80;34.80
24252;DHT22;12380;51.118;4.176;2023-05-27T13:14:33;28.00;36.20
24252;DHT22;12380;51.118;4.176;2023-05-27T13:16:59;28.20;36.50
24252;DHT22;12380;51.118;4.176;2023-05-27T13:19:24;28.40;38.30
24252;DHT22;12380;51.118;4.176;2023-05-27T13:21:50;28.80;36.70
24252;DHT22;12380;51.118;4.176;2023-05-27T13:24:16;29.40;37.50
24252;DHT22;12380;51.118;4.176;2023-05-27T13:26:41;29.80;36.20
24252;DHT22;12380;51.118;4.176;2023-05-27T13:29:10;30.40;35.50
24252;DHT22;12380;51.118;4.176;2023-05-27T13:31:35;30.20;30.80
24252;DHT22;12380;51.118;4.176;2023-05-27T13:34:01;29.00;25.20
24252;DHT22;12380;51.118;4.176;2023-05-27T13:36:27;29.00;31.50
24252;DHT22;12380;51.118;4.176;2023-05-27T13:38:52;28.80;30.10
24252;DHT22;12380;51.118;4.176;2023-05-27T13:41:18;29.50;31.40
24252;DHT22;12380;51.118;4.176;2023-05-27T13:43:43;29.20;28.20
24252;DHT22;12380;51.118;4.176;2023-05-27T13:46:09;28.60;28.60
24252;DHT22;12380;51.118;4.176;2023-05-27T13:48:34;28.10;29.00
24252;DHT22;12380;51.118;4.176;2023-05-27T13:51:00;28.70;31.20
24252;DHT22;12380;51.118;4.176;2023-05-27T13:53:26;28.60;32.10
24252;DHT22;12380;51.118;4.176;2023-05-27T13:55:51;29.20;29.40
24252;DHT22;12380;51.118;4.176;2023-05-27T13:58:17;29.60;29.50
24252;DHT22;12380;51.118;4.176;2023-05-27T14:00:43;28.90;27.90
24252;DHT22;12380;51.118;4.176;2023-05-27T14:03:09;29.00;27.40
24252;DHT22;12380;51.118;4.176;2023-05-27T14:05:36;29.30;29.70
24252;DHT22;12380;51.118;4.176;2023-05-27T14:08:02;29.70;30.50
24252;DHT22;12380;51.118;4.176;2023-05-27T14:10:29;29.90;29.00
24252;DHT22;12380;51.118;4.176;2023-05-27T14:12:55;29.10;24.00
24252;DHT22;12380;51.118;4.176;2023-05-27T14:15:21;28.60;23.50
24252;DHT22;12380;51.118;4.176;2023-05-27T14:17:47;28.80;27.70
24252;DHT22;12380;51.118;4.176;2023-05-27T14:20:12;29.20;30.10
24252;DHT22;12380;51.118;4.176;2023-05-27T14:22:38;29.50;26.80
24252;DHT22;12380;51.118;4.176;2023-05-27T14:25:06;29.70;27.20
24252;DHT22;12380;51.118;4.176;2023-05-27T14:27:32;30.00;29.00
24252;DHT22;12380;51.118;4.176;2023-05-27T14:29:58;30.20;26.00
24252;DHT22;12380;51.118;4.176;2023-05-27T14:32:23;30.40;27.40
24252;DHT22;12380;51.118;4.176;2023-05-27T14:34:49;30.20;25.50
24252;DHT22;12380;51.118;4.176;2023-05-27T14:37:14;29.30;23.50
24252;DHT22;12380;51.118;4.176;2023-05-27T14:39:40;28.20;23.60
24252;DHT22;12380;51.118;4.176;2023-05-27T14:42:08;28.60;24.60
24252;DHT22;12380;51.118;4.176;2023-05-27T14:44:36;28.50;27.30
24252;DHT22;12380;51.118;4.176;2023-05-27T14:47:02;28.10;23.70
24252;DHT22;12380;51.118;4.176;2023-05-27T14:49:27;28.00;26.10
24252;DHT22;12380;51.118;4.176;2023-05-27T14:51:53;27.80;25.30
24252;DHT22;12380;51.118;4.176;2023-05-27T14:54:18;27.60;24.40
24252;DHT22;12380;51.118;4.176;2023-05-27T14:56:44;27.80;23.70
24252;DHT22;12380;51.118;4.176;2023-05-27T14:59:12;28.10;28.20
24252;DHT22;12380;51.118;4.176;2023-05-27T15:01:38;28.10;22.60
24252;DHT22;12380;51.118;4.176;2023-05-27T15:04:04;27.90;23.70
24252;DHT22;12380;51.118;4.176;2023-05-27T15:06:29;28.10;24.50
24252;DHT22;12380;51.118;4.176;2023-05-27T15:08:58;28.10;23.10
24252;DHT22;12380;51.118;4.176;2023-05-27T15:11:23;28.20;25.60
24252;DHT22;12380;51.118;4.176;2023-05-27T15:13:49;28.10;23.50
24252;DHT22;12380;51.118;4.176;2023-05-27T15:16:15;27.60;22.10
24252;DHT22;12380;51.118;4.176;2023-05-27T15:18:40;27.40;25.20
24252;DHT22;12380;51.118;4.176;2023-05-27T15:21:06;27.90;27.20
24252;DHT22;12380;51.118;4.176;2023-05-27T15:23:33;27.80;24.90
24252;DHT22;12380;51.118;4.176;2023-05-27T15:26:01;27.80;24.40
24252;DHT22;12380;51.118;4.176;2023-05-27T15:28:27;27.70;25.60
24252;DHT22;12380;51.118;4.176;2023-05-27T15:30:52;27.80;26.20
24252;DHT22;12380;51.118;4.176;2023-05-27T15:33:18;28.00;26.20